Time;durP1;ratioP1;P1;durP2;ratioP2;P2;SDS_P1;SDS_P2;PMS_P1;PMS_P2;Temp;Humidity;BMP_temperature;BMP_pressure;BME280_temperature;BME280_humidity;BME280_pressure;Samples;Min_cycle;Max_cycle;Signal;HPM_P1;HPM_P2
2022/04/13 00:01:24;;;;;;;11.07;4.63;;;13.30;99.30;;;;;;5019874;28;20214;-72
2022/04/13 00:03:50;;;;;;;6.77;3.37;;;13.20;99.00;;;;;;5029370;22;20242;-68
2022/04/13 00:06:17;;;;;;;6.13;3.87;;;13.20;99.90;;;;;;5000850;28;20209;-68
2022/04/13 00:08:44;;;;;;;10.10;4.07;;;13.20;99.90;;;;;;5009941;28;20679;-68
2022/04/13 00:11:13;;;;;;;6.87;3.57;;;13.20;99.90;;;;;;5006755;28;20273;-68
2022/04/13 00:13:40;;;;;;;6.80;3.53;;;13.20;99.90;;;;;;4995512;28;20638;-68
2022/04/13 00:16:07;;;;;;;6.40;3.27;;;13.20;99.90;;;;;;4987538;28;20208;-68
2022/04/13 00:18:34;;;;;;;6.07;3.87;;;13.20;99.90;;;;;;4985437;28;20212;-68
2022/04/13 00:21:01;;;;;;;6.80;3.63;;;13.10;99.90;;;;;;4992762;28;20700;-68
2022/04/13 00:23:28;;;;;;;7.70;3.20;;;13.20;99.90;;;;;;4990991;28;20225;-68
2022/04/13 00:25:55;;;;;;;7.43;3.70;;;13.10;99.90;;;;;;4979656;28;20713;-68
2022/04/13 00:28:23;;;;;;;8.70;4.10;;;13.20;99.90;;;;;;4983723;28;20223;-68
2022/04/13 00:30:50;;;;;;;9.93;3.40;;;13.10;99.90;;;;;;4996935;28;20234;-68
2022/04/13 00:33:17;;;;;;;11.17;3.93;;;13.10;99.90;;;;;;4990330;28;20250;-68
2022/04/13 00:35:44;;;;;;;5.83;3.57;;;13.10;99.90;;;;;;4990630;28;20223;-68
2022/04/13 00:38:11;;;;;;;7.63;3.60;;;13.10;99.90;;;;;;4997875;28;20206;-68
2022/04/13 00:40:40;;;;;;;8.03;3.63;;;13.10;99.90;;;;;;5005665;28;20707;-68
2022/04/13 00:43:07;;;;;;;6.47;3.40;;;13.10;99.90;;;;;;4992995;28;20359;-67
2022/04/13 00:45:35;;;;;;;6.90;4.00;;;13.10;99.90;;;;;;4990738;28;20215;-68
2022/04/13 00:48:04;;;;;;;7.57;3.27;;;13.00;99.90;;;;;;4984710;28;20273;-68
2022/04/13 00:50:31;;;;;;;5.97;3.33;;;13.00;99.90;;;;;;4982486;28;20241;-68
2022/04/13 00:53:00;;;;;;;8.37;3.83;;;12.90;99.90;;;;;;4994517;28;20224;-68
2022/04/13 00:55:27;;;;;;;6.33;3.93;;;12.90;99.90;;;;;;4984470;28;20215;-67
2022/04/13 00:57:58;;;;;;;6.47;3.47;;;12.90;99.90;;;;;;4986643;28;20224;-67
2022/04/13 01:00:25;;;;;;;7.43;3.70;;;12.80;99.90;;;;;;4996074;28;20290;-67
2022/04/13 01:02:55;;;;;;;6.17;3.60;;;12.70;99.90;;;;;;4995103;28;20322;-68
2022/04/13 01:05:23;;;;;;;10.07;3.87;;;12.70;99.90;;;;;;4986019;28;20351;-68
2022/04/13 01:07:52;;;;;;;7.80;3.77;;;12.70;99.90;;;;;;4995201;28;20245;-67
2022/04/13 01:10:19;;;;;;;4.67;3.33;;;12.60;99.90;;;;;;4995068;28;20235;-67
2022/04/13 01:12:46;;;;;;;9.37;3.80;;;12.60;99.90;;;;;;4995090;28;20232;-67
2022/04/13 01:15:13;;;;;;;7.07;3.60;;;12.50;99.90;;;;;;4994508;28;20215;-67
2022/04/13 01:17:40;;;;;;;7.87;3.37;;;12.50;99.90;;;;;;4993290;28;20218;-67
2022/04/13 01:20:11;;;;;;;5.83;3.60;;;12.50;99.90;;;;;;4985704;28;20227;-67
2022/04/13 01:22:40;;;;;;;7.17;3.93;;;12.50;99.90;;;;;;4984873;28;20557;-67
2022/04/13 01:25:08;;;;;;;10.17;3.80;;;12.50;99.90;;;;;;4991644;28;20411;-67
2022/04/13 01:27:35;;;;;;;5.67;3.20;;;12.50;99.90;;;;;;4988434;28;20238;-67
2022/04/13 01:30:06;;;;;;;7.73;3.37;;;12.50;99.90;;;;;;4995049;28;20719;-67
2022/04/13 01:32:33;;;;;;;8.67;3.97;;;12.50;99.90;;;;;;4996202;28;20239;-67
2022/04/13 01:35:00;;;;;;;6.47;3.40;;;12.50;99.90;;;;;;4991026;28;20232;-67
2022/04/13 01:37:27;;;;;;;6.23;3.70;;;12.40;99.90;;;;;;4993172;28;20214;-67
2022/04/13 01:39:55;;;;;;;8.83;3.70;;;12.40;99.90;;;;;;4995598;28;20213;-67
2022/04/13 01:42:22;;;;;;;6.27;3.40;;;12.30;99.90;;;;;;4985392;28;20207;-67
2022/04/13 01:44:49;;;;;;;7.87;3.37;;;12.30;99.90;;;;;;4985031;28;20220;-67
2022/04/13 01:47:16;;;;;;;9.40;4.00;;;12.30;99.90;;;;;;4983846;28;20207;-67
2022/04/13 01:49:44;;;;;;;10.50;3.90;;;12.30;99.90;;;;;;4998846;28;20610;-67
2022/04/13 01:52:12;;;;;;;8.43;3.97;;;12.20;99.90;;;;;;4976945;28;20242;-68
2022/04/13 01:54:39;;;;;;;7.47;3.80;;;12.20;99.90;;;;;;4979710;28;20212;-67
2022/04/13 01:57:07;;;;;;;7.60;3.73;;;12.10;99.90;;;;;;4993461;28;20312;-67
2022/04/13 01:59:34;;;;;;;7.27;3.60;;;12.10;99.90;;;;;;4980066;28;20254;-67
2022/04/13 02:02:04;;;;;;;6.87;3.60;;;12.10;99.90;;;;;;4988691;28;20224;-68
2022/04/13 02:04:32;;;;;;;6.07;3.50;;;12.10;99.90;;;;;;4984271;28;20218;-67
2022/04/13 02:07:00;;;;;;;9.60;3.63;;;12.00;99.90;;;;;;4989231;28;20306;-67
2022/04/13 02:09:27;;;;;;;10.20;4.20;;;12.00;99.90;;;;;;4980233;28;20230;-67
2022/04/13 02:11:54;;;;;;;8.30;4.10;;;11.90;99.90;;;;;;4983218;28;20672;-67
2022/04/13 02:14:22;;;;;;;9.87;3.80;;;11.80;99.90;;;;;;4991105;28;20222;-67
2022/04/13 02:16:49;;;;;;;10.17;4.00;;;11.70;99.90;;;;;;4994975;28;20646;-67
2022/04/13 02:19:16;;;;;;;6.00;3.63;;;11.70;99.90;;;;;;4992229;28;20261;-67
2022/04/13 02:21:44;;;;;;;11.80;4.63;;;11.60;99.90;;;;;;4980228;28;20242;-67
2022/04/13 02:24:10;;;;;;;8.43;4.37;;;11.60;99.90;;;;;;4982808;28;20233;-67
2022/04/13 02:26:37;;;;;;;8.13;3.97;;;11.50;99.90;;;;;;4988331;28;20699;-67
2022/04/13 02:29:04;;;;;;;6.23;3.60;;;11.50;99.90;;;;;;4982882;28;20203;-67
2022/04/13 02:31:33;;;;;;;8.73;3.50;;;11.40;99.90;;;;;;4986402;28;20228;-68
2022/04/13 02:34:01;;;;;;;5.20;3.53;;;11.40;99.90;;;;;;4999207;28;20234;-67
2022/04/13 02:36:28;;;;;;;7.63;3.90;;;11.30;99.90;;;;;;4985121;28;20652;-67
2022/04/13 02:38:54;;;;;;;8.67;3.93;;;11.20;99.90;;;;;;4990422;28;20218;-67
2022/04/13 02:41:22;;;;;;;9.00;3.90;;;11.20;99.90;;;;;;4998113;28;20230;-68
2022/04/13 02:43:48;;;;;;;7.43;4.00;;;11.10;99.90;;;;;;4983173;28;20236;-68
2022/04/13 02:46:15;;;;;;;6.53;3.47;;;11.10;99.90;;;;;;4987720;28;20663;-67
2022/04/13 02:48:43;;;;;;;6.37;3.90;;;11.10;99.90;;;;;;4990954;28;20225;-68
2022/04/13 02:51:10;;;;;;;8.40;4.03;;;11.10;99.90;;;;;;4977689;28;20726;-68
2022/04/13 02:53:37;;;;;;;7.57;3.83;;;11.00;99.90;;;;;;4994701;28;20284;-68
2022/04/13 02:56:04;;;;;;;9.43;4.17;;;11.00;99.90;;;;;;4988423;28;20216;-68
2022/04/13 02:58:31;;;;;;;7.23;4.37;;;11.00;99.90;;;;;;4997936;28;20218;-67
2022/04/13 03:00:58;;;;;;;13.93;4.60;;;10.90;99.90;;;;;;4995329;28;20589;-68
2022/04/13 03:03:25;;;;;;;9.90;4.20;;;10.90;99.90;;;;;;4992280;28;20625;-68
2022/04/13 03:05:53;;;;;;;6.87;3.93;;;10.90;99.90;;;;;;4994142;28;20555;-68
2022/04/13 03:08:20;;;;;;;8.00;4.30;;;10.90;99.90;;;;;;4987894;28;20294;-68
2022/04/13 03:10:47;;;;;;;7.73;3.37;;;10.90;99.90;;;;;;4993338;28;20594;-68
2022/04/13 03:13:14;;;;;;;8.47;3.97;;;10.90;99.90;;;;;;4990609;28;20239;-67
2022/04/13 03:15:41;;;;;;;8.80;3.90;;;10.80;99.90;;;;;;4986837;28;20211;-68
2022/04/13 03:18:08;;;;;;;6.30;3.50;;;10.80;99.90;;;;;;4994750;28;20210;-68
2022/04/13 03:20:35;;;;;;;6.57;3.80;;;10.80;99.90;;;;;;4998305;28;20198;-68
2022/04/13 03:23:04;;;;;;;9.23;3.57;;;10.80;99.90;;;;;;4996731;28;20294;-68
2022/04/13 03:25:33;;;;;;;14.00;3.97;;;10.70;99.90;;;;;;4991105;28;20222;-68
2022/04/13 03:28:00;;;;;;;6.10;3.50;;;10.70;99.90;;;;;;4994052;28;20236;-68
2022/04/13 03:30:27;;;;;;;11.23;4.37;;;10.70;99.90;;;;;;4988787;28;20233;-68
2022/04/13 03:32:54;;;;;;;9.73;4.13;;;10.70;99.90;;;;;;4993920;28;20234;-67
2022/04/13 03:35:22;;;;;;;5.27;3.77;;;10.70;99.90;;;;;;4995740;28;20216;-65
2022/04/13 03:37:49;;;;;;;8.23;3.70;;;12.10;99.90;;;;;;4987871;28;20309;-69
2022/04/13 03:40:17;;;;;;;9.37;4.00;;;10.60;99.90;;;;;;4990972;28;20210;-67
2022/04/13 03:42:44;;;;;;;5.33;3.80;;;10.60;99.90;;;;;;4990014;28;20887;-67
2022/04/13 03:45:13;;;;;;;7.67;4.13;;;10.60;99.90;;;;;;4991971;28;20216;-67
2022/04/13 03:47:40;;;;;;;9.80;3.97;;;10.70;99.90;;;;;;4988715;28;20676;-66
2022/04/13 03:50:09;;;;;;;10.83;4.60;;;10.70;99.90;;;;;;4998977;28;20230;-66
2022/04/13 03:52:36;;;;;;;7.90;3.77;;;10.70;99.90;;;;;;4983393;28;20247;-67
2022/04/13 03:55:05;;;;;;;5.27;3.80;;;10.70;99.90;;;;;;4989802;28;20210;-67
2022/04/13 03:57:34;;;;;;;5.53;3.90;;;10.70;99.90;;;;;;5001118;28;20263;-66
2022/04/13 04:00:01;;;;;;;7.60;4.53;;;10.80;99.90;;;;;;4988228;28;21076;-68
2022/04/13 04:02:28;;;;;;;10.37;4.23;;;10.80;99.90;;;;;;5005627;28;20329;-69
2022/04/13 04:04:55;;;;;;;13.23;3.87;;;10.80;99.90;;;;;;5001176;28;20629;-69
2022/04/13 04:07:21;;;;;;;10.13;3.80;;;10.80;99.90;;;;;;4983543;28;20699;-69
2022/04/13 04:09:50;;;;;;;8.10;3.80;;;10.90;99.90;;;;;;4983285;28;20210;-67
2022/04/13 04:12:17;;;;;;;8.03;4.10;;;11.00;99.90;;;;;;4990145;28;20248;-68
2022/04/13 04:14:45;;;;;;;6.73;4.00;;;11.00;99.90;;;;;;4995110;28;20214;-69
2022/04/13 04:17:12;;;;;;;9.60;3.87;;;11.00;99.90;;;;;;4988330;28;20207;-69
2022/04/13 04:19:39;;;;;;;8.13;3.70;;;11.10;99.90;;;;;;4990556;28;20539;-69
2022/04/13 04:22:05;;;;;;;9.03;4.23;;;11.20;99.90;;;;;;4988268;28;20582;-69
2022/04/13 04:24:33;;;;;;;8.63;4.10;;;11.20;99.90;;;;;;4980660;28;20219;-69
2022/04/13 04:26:59;;;;;;;11.00;4.27;;;11.20;99.90;;;;;;4997948;28;20574;-68
2022/04/13 04:29:26;;;;;;;8.07;3.80;;;11.30;99.90;;;;;;4988184;28;20500;-69
2022/04/13 04:31:54;;;;;;;9.13;3.30;;;11.30;99.90;;;;;;4980165;28;20254;-69
2022/04/13 04:34:24;;;;;;;7.37;3.73;;;11.40;99.90;;;;;;4987304;28;20239;-69
2022/04/13 04:36:51;;;;;;;14.33;3.80;;;11.40;99.90;;;;;;4994707;28;20212;-69
2022/04/13 04:39:18;;;;;;;7.20;3.67;;;11.40;99.90;;;;;;4983756;28;20282;-69
2022/04/13 04:41:47;;;;;;;6.73;3.50;;;11.40;99.90;;;;;;4987936;28;20572;-68
2022/04/13 04:44:13;;;;;;;11.20;4.70;;;11.40;99.90;;;;;;5003227;28;20226;-69
2022/04/13 04:46:40;;;;;;;9.33;4.00;;;11.40;99.90;;;;;;4994112;28;20206;-69
2022/04/13 04:49:08;;;;;;;10.87;4.17;;;11.40;99.90;;;;;;4986334;28;20264;-69
2022/04/13 04:51:35;;;;;;;9.60;3.80;;;11.40;99.90;;;;;;4984245;28;20239;-69
2022/04/13 04:54:03;;;;;;;8.27;4.00;;;11.40;99.90;;;;;;4977669;28;20234;-69
2022/04/13 04:56:31;;;;;;;9.23;4.07;;;11.40;99.90;;;;;;4980845;28;20233;-69
2022/04/13 04:58:58;;;;;;;8.13;4.17;;;11.40;99.90;;;;;;4995543;28;20234;-68
2022/04/13 05:01:25;;;;;;;8.90;3.90;;;11.50;99.90;;;;;;4984893;28;20231;-69
2022/04/13 05:03:52;;;;;;;7.33;4.13;;;11.50;99.90;;;;;;4988630;28;20321;-69
2022/04/13 05:06:22;;;;;;;6.10;3.50;;;11.60;99.90;;;;;;4996929;28;20202;-67
2022/04/13 05:08:49;;;;;;;6.43;3.40;;;11.60;99.90;;;;;;4989727;28;20210;-67
2022/04/13 05:11:16;;;;;;;8.37;4.10;;;11.70;99.90;;;;;;4991031;28;20229;-67
2022/04/13 05:13:45;;;;;;;7.13;4.03;;;11.80;99.90;;;;;;5000239;28;20704;-67
2022/04/13 05:16:13;;;;;;;7.73;3.77;;;12.00;99.90;;;;;;4980960;28;20215;-67
2022/04/13 05:18:41;;;;;;;10.87;3.50;;;12.10;99.90;;;;;;4990640;28;20683;-67
2022/04/13 05:21:08;;;;;;;5.77;3.30;;;12.20;99.90;;;;;;4986335;28;20677;-67
2022/04/13 05:23:37;;;;;;;8.23;3.60;;;12.30;99.90;;;;;;4985960;28;20300;-67
2022/04/13 05:26:04;;;;;;;11.77;3.87;;;12.40;99.90;;;;;;4983885;28;20214;-67
2022/04/13 05:28:31;;;;;;;7.53;3.43;;;12.50;99.90;;;;;;4987883;28;20202;-67
2022/04/13 05:30:58;;;;;;;11.57;4.20;;;12.50;99.90;;;;;;5001837;28;20228;-67
2022/04/13 05:33:25;;;;;;;7.83;3.63;;;12.60;99.90;;;;;;4992538;28;20360;-67
2022/04/13 05:35:52;;;;;;;4.93;3.20;;;12.70;99.90;;;;;;4990735;28;20221;-67
2022/04/13 05:38:19;;;;;;;8.00;3.60;;;12.90;99.90;;;;;;4989009;28;20212;-67
2022/04/13 05:40:48;;;;;;;12.70;3.93;;;13.00;99.90;;;;;;4986167;28;20295;-68
2022/04/13 05:43:15;;;;;;;6.57;4.00;;;13.10;99.90;;;;;;4983404;28;20230;-68
2022/04/13 05:45:41;;;;;;;7.30;3.80;;;13.20;99.90;;;;;;5005673;28;20221;-68
2022/04/13 05:48:08;;;;;;;5.57;3.33;;;13.20;99.90;;;;;;4978012;28;20216;-68
2022/04/13 05:50:35;;;;;;;10.87;3.90;;;13.40;99.90;;;;;;4986079;28;20214;-68
2022/04/13 05:53:02;;;;;;;7.07;3.87;;;13.50;99.90;;;;;;4992520;28;20241;-68
2022/04/13 05:55:29;;;;;;;8.57;3.80;;;13.80;99.90;;;;;;4991803;28;20688;-69
2022/04/13 05:57:58;;;;;;;11.80;3.93;;;14.10;99.90;;;;;;4990970;28;20484;-68
2022/04/13 06:00:25;;;;;;;13.37;3.80;;;14.50;99.90;;;;;;4992692;28;20665;-69
2022/04/13 06:02:52;;;;;;;7.27;4.03;;;15.20;99.90;;;;;;5011121;22;20237;-71
2022/04/13 06:05:20;;;;;;;7.33;3.40;;;15.30;99.90;;;;;;5004547;28;20209;-71
2022/04/13 06:07:47;;;;;;;9.43;3.97;;;15.90;99.90;;;;;;5006682;28;20324;-71
2022/04/13 06:10:15;;;;;;;6.33;3.57;;;16.50;99.90;;;;;;5000943;28;20194;-71
2022/04/13 06:12:42;;;;;;;8.20;3.90;;;17.50;99.90;;;;;;5005773;28;20644;-71
2022/04/13 06:15:12;;;;;;;11.67;4.30;;;17.60;99.90;;;;;;4991582;28;20203;-71
2022/04/13 06:17:39;;;;;;;7.93;4.17;;;18.10;99.90;;;;;;4981700;28;20207;-72
2022/04/13 06:20:08;;;;;;;8.13;4.23;;;18.40;99.90;;;;;;4989400;28;20207;-71
2022/04/13 06:22:38;;;;;;;8.50;4.00;;;19.00;99.90;;;;;;4986982;28;20317;-71
2022/04/13 06:25:06;;;;;;;10.07;4.33;;;19.00;99.90;;;;;;4990227;28;20213;-72
2022/04/13 06:27:33;;;;;;;11.23;4.80;;;19.20;99.90;;;;;;4992946;28;20963;-72
2022/04/13 06:30:00;;;;;;;8.80;4.63;;;19.40;99.90;;;;;;4995105;28;20221;-71
2022/04/13 06:32:33;;;;;;;16.53;5.53;;;20.00;99.90;;;;;;4997178;28;20251;-72
2022/04/13 06:35:00;;;;;;;10.17;4.60;;;20.10;99.90;;;;;;4991889;28;20326;-71
2022/04/13 06:37:28;;;;;;;10.60;4.20;;;20.40;99.90;;;;;;4994046;28;20213;-71
2022/04/13 06:39:55;;;;;;;12.47;5.03;;;21.00;99.90;;;;;;4983572;28;20223;-71
2022/04/13 06:42:23;;;;;;;10.67;4.70;;;;;;;;;;4988889;28;20210;-71
2022/04/13 06:44:53;;;;;;;13.83;5.60;;;22.20;99.90;;;;;;4993878;28;20213;-72
2022/04/13 06:47:19;;;;;;;11.27;6.10;;;22.90;99.90;;;;;;4987780;28;20710;-72
2022/04/13 06:49:48;;;;;;;13.07;5.60;;;23.40;99.90;;;;;;4992652;28;20215;-74
2022/04/13 06:52:15;;;;;;;15.03;6.37;;;24.00;99.90;;;;;;4997150;28;20228;-73
2022/04/13 06:54:42;;;;;;;13.13;6.17;;;24.50;99.90;;;;;;4987820;28;20249;-73
2022/04/13 06:57:09;;;;;;;14.10;6.87;;;25.00;99.90;;;;;;4992809;28;20237;-74
2022/04/13 06:59:36;;;;;;;14.27;6.57;;;;;;;;;;4989832;28;20232;-73
2022/04/13 07:02:06;;;;;;;16.90;7.13;;;26.00;99.90;;;;;;4991568;28;20222;-74
2022/04/13 07:04:34;;;;;;;13.43;6.73;;;26.40;99.90;;;;;;4992777;28;20646;-74
2022/04/13 07:07:02;;;;;;;16.67;6.70;;;26.60;99.90;;;;;;4992496;28;20209;-74
2022/04/13 07:09:29;;;;;;;13.20;6.03;;;26.60;99.90;;;;;;4993181;28;20826;-73
2022/04/13 07:11:56;;;;;;;15.33;7.17;;;26.50;99.90;;;;;;4992838;28;20324;-74
2022/04/13 07:14:23;;;;;;;14.23;7.00;;;26.70;99.90;;;;;;4992856;28;20617;-74
2022/04/13 07:16:50;;;;;;;18.17;7.67;;;26.90;99.90;;;;;;4988089;28;20220;-74
2022/04/13 07:19:17;;;;;;;20.13;7.67;;;27.10;99.90;;;;;;4989736;28;20285;-74
2022/04/13 07:21:44;;;;;;;16.87;7.47;;;26.90;99.90;;;;;;4990860;28;20207;-75
2022/04/13 07:24:12;;;;;;;18.80;7.53;;;26.80;99.90;;;;;;4991942;28;20233;-73
2022/04/13 07:26:39;;;;;;;29.07;9.57;;;;;;;;;;4989651;28;20225;-73
2022/04/13 07:29:06;;;;;;;20.80;9.07;;;26.90;99.10;;;;;;4990494;28;20202;-73
2022/04/13 07:31:33;;;;;;;22.07;8.83;;;27.40;99.00;;;;;;4996160;28;20658;-73
2022/04/13 07:34:02;;;;;;;18.07;8.73;;;27.10;99.60;;;;;;4986741;28;20241;-73
2022/04/13 07:36:30;;;;;;;15.83;8.10;;;27.10;98.20;;;;;;4983598;28;20667;-72
2022/04/13 07:38:57;;;;;;;26.07;9.50;;;27.30;97.60;;;;;;4984174;28;20225;-73
2022/04/13 07:41:25;;;;;;;21.83;8.70;;;27.30;96.80;;;;;;4996211;28;20248;-72
2022/04/13 07:43:52;;;;;;;21.00;9.73;;;27.30;96.80;;;;;;4988380;28;20707;-73
2022/04/13 07:46:19;;;;;;;25.03;9.63;;;27.40;97.00;;;;;;4991243;28;20572;-73
2022/04/13 07:48:46;;;;;;;21.48;9.48;;;27.60;96.40;;;;;;4990948;28;20242;-73
2022/04/13 07:51:13;;;;;;;29.23;10.98;;;27.80;95.90;;;;;;4991151;28;20222;-73
2022/04/13 07:53:40;;;;;;;20.30;9.32;;;28.20;96.00;;;;;;4989352;28;20242;-75
2022/04/13 07:56:07;;;;;;;19.40;9.25;;;28.70;95.40;;;;;;4984586;28;20655;-73
2022/04/13 07:58:36;;;;;;;19.38;9.00;;;29.00;94.20;;;;;;4991686;28;20286;-73
2022/04/13 08:01:02;;;;;;;20.20;9.55;;;29.20;93.60;;;;;;4988320;28;20215;-74
2022/04/13 08:03:29;;;;;;;20.40;9.25;;;29.10;93.30;;;;;;4990459;28;20252;-75
2022/04/13 08:05:56;;;;;;;26.73;10.45;;;29.30;93.10;;;;;;4992550;28;20652;-75
2022/04/13 08:08:23;;;;;;;19.85;9.55;;;29.60;92.80;;;;;;4991680;28;20207;-75
2022/04/13 08:10:50;;;;;;;27.73;11.55;;;29.90;92.50;;;;;;4992704;28;20676;-75
2022/04/13 08:13:17;;;;;;;22.15;10.50;;;30.10;91.50;;;;;;4992357;28;20799;-75
2022/04/13 08:15:46;;;;;;;18.75;9.48;;;30.10;91.10;;;;;;4989617;28;20253;-75
2022/04/13 08:18:13;;;;;;;19.70;8.88;;;30.30;91.20;;;;;;4986229;28;20222;-75
2022/04/13 08:20:39;;;;;;;22.13;8.75;;;30.60;90.60;;;;;;5001190;28;20223;-75
2022/04/13 08:23:06;;;;;;;27.45;9.20;;;30.70;90.40;;;;;;4991039;28;20309;-75
2022/04/13 08:25:33;;;;;;;15.10;8.30;;;30.80;89.90;;;;;;4989453;28;20220;-75
2022/04/13 08:28:00;;;;;;;21.45;9.82;;;30.80;89.10;;;;;;4989043;28;20210;-75
2022/04/13 08:30:27;;;;;;;23.15;8.05;;;30.60;87.30;;;;;;4990444;28;20696;-75
2022/04/13 08:32:55;;;;;;;33.90;15.35;;;30.60;87.80;;;;;;4990816;28;20235;-75
2022/04/13 08:35:22;;;;;;;30.42;14.63;;;30.70;86.70;;;;;;4980123;28;20215;-74
2022/04/13 08:37:49;;;;;;;41.72;15.25;;;30.50;86.50;;;;;;4989214;28;20211;-75
2022/04/13 08:40:17;;;;;;;25.67;11.85;;;30.10;84.50;;;;;;4989969;28;20214;-75
2022/04/13 08:42:53;;;;;;;31.08;12.65;;;29.00;84.90;;;;;;4991134;28;20237;-75
2022/04/13 08:45:23;;;;;;;29.08;12.50;;;29.00;84.60;;;;;;4992416;28;20564;-74
2022/04/13 08:47:56;;;;;;;24.95;11.63;;;28.50;85.70;;;;;;4989539;28;20217;-74
2022/04/13 08:50:26;;;;;;;33.15;13.23;;;28.30;86.40;;;;;;4991482;28;20676;-74
2022/04/13 08:52:57;;;;;;;36.40;12.82;;;28.20;87.50;;;;;;4988517;28;20258;-75
2022/04/13 08:55:26;;;;;;;27.65;11.38;;;28.30;88.70;;;;;;4987277;28;20265;-74
2022/04/13 08:58:03;;;;;;;27.02;11.32;;;28.40;87.30;;;;;;4991067;28;20309;-74
2022/04/13 09:00:32;;;;;;;31.02;11.45;;;28.30;87.40;;;;;;4991480;28;20985;-75
2022/04/13 09:03:19;;;;;;;36.53;13.25;;;28.30;88.10;;;;;;4989414;28;20239;-74
2022/04/13 09:05:51;;;;;;;28.40;11.00;;;28.40;87.70;;;;;;4993120;28;20684;-75
2022/04/13 09:08:21;;;;;;;27.92;11.45;;;28.20;87.50;;;;;;4984085;28;20742;-75
2022/04/13 09:10:48;;;;;;;23.98;11.00;;;28.10;87.90;;;;;;4983323;28;20241;-74
2022/04/13 09:13:16;;;;;;;29.42;11.75;;;28.00;88.40;;;;;;4989386;28;20321;-73
2022/04/13 09:15:43;;;;;;;38.70;13.35;;;27.90;87.60;;;;;;4988712;28;20570;-75
2022/04/13 09:18:11;;;;;;;36.92;13.20;;;27.90;88.00;;;;;;4990040;28;20222;-74
2022/04/13 09:20:38;;;;;;;32.92;12.15;;;27.90;87.80;;;;;;4988062;28;20221;-73
2022/04/13 09:23:07;;;;;;;28.08;10.40;;;27.60;86.90;;;;;;4987492;28;20309;-73
2022/04/13 09:25:36;;;;;;;23.13;9.70;;;27.60;86.80;;;;;;4989011;28;20199;-73
2022/04/13 09:28:04;;;;;;;24.40;9.10;;;26.90;86.30;;;;;;4987735;28;20205;-72
2022/04/13 09:30:34;;;;;;;19.60;8.10;;;26.10;87.40;;;;;;4980314;28;20210;-73
2022/04/13 09:33:02;;;;;;;19.40;8.60;;;25.30;88.50;;;;;;4980547;28;20263;-74
2022/04/13 09:35:32;;;;;;;21.80;7.30;;;25.40;90.30;;;;;;4980944;28;20213;-74
2022/04/13 09:38:03;;;;;;;18.40;7.10;;;25.40;90.50;;;;;;4981776;28;20217;-73
2022/04/13 09:40:39;;;;;;;17.47;7.40;;;25.40;90.70;;;;;;4980989;28;20212;-73
2022/04/13 09:43:08;;;;;;;18.87;6.97;;;25.10;90.10;;;;;;4984495;28;20243;-73
2022/04/13 09:45:37;;;;;;;16.10;7.20;;;25.10;90.60;;;;;;4986707;28;20209;-73
2022/04/13 09:48:09;;;;;;;19.17;7.57;;;25.10;90.80;;;;;;4988417;28;20210;-73
2022/04/13 09:50:37;;;;;;;20.30;7.43;;;25.10;90.80;;;;;;4988615;28;20745;-73
2022/04/13 09:53:05;;;;;;;21.80;6.90;;;25.10;90.70;;;;;;4991081;28;20236;-73
2022/04/13 09:55:37;;;;;;;13.07;6.33;;;25.10;90.80;;;;;;5000278;28;20262;-74
2022/04/13 09:58:07;;;;;;;15.23;6.70;;;25.10;90.70;;;;;;4984095;28;20235;-74
2022/04/13 10:00:35;;;;;;;12.73;6.87;;;24.90;90.80;;;;;;4987254;28;20216;-73
2022/04/13 10:03:10;;;;;;;15.80;6.47;;;24.40;90.60;;;;;;4989156;28;20258;-72
2022/04/13 10:05:38;;;;;;;15.80;6.90;;;;;;;;;;4990584;28;20210;-73
2022/04/13 10:08:06;;;;;;;14.90;6.33;;;23.90;91.20;;;;;;4990618;28;20217;-72
2022/04/13 10:10:33;;;;;;;15.47;6.60;;;23.80;91.90;;;;;;4988907;28;20295;-73
2022/04/13 10:13:00;;;;;;;16.10;6.53;;;23.90;91.90;;;;;;4990657;28;20618;-75
2022/04/13 10:15:28;;;;;;;13.97;6.27;;;24.00;92.70;;;;;;4991807;28;20225;-74
2022/04/13 10:17:59;;;;;;;14.13;5.87;;;24.10;92.40;;;;;;4991003;28;20682;-74
2022/04/13 10:20:42;;;;;;;18.87;6.17;;;23.80;92.40;;;;;;4989886;28;20307;-75
2022/04/13 10:23:09;;;;;;;14.73;5.93;;;23.80;93.00;;;;;;4990255;28;20232;-74
2022/04/13 10:25:36;;;;;;;15.83;5.40;;;23.90;93.00;;;;;;4989050;28;20211;-74
2022/04/13 10:28:04;;;;;;;11.80;5.77;;;24.00;93.20;;;;;;4991784;28;20222;-74
2022/04/13 10:30:34;;;;;;;16.17;5.60;;;24.10;93.10;;;;;;4992426;28;20215;-74
2022/04/13 10:33:02;;;;;;;19.27;5.53;;;24.30;93.00;;;;;;4985859;28;20245;-73
2022/04/13 10:35:31;;;;;;;17.77;5.83;;;24.40;93.60;;;;;;4993036;28;20329;-73
2022/04/13 10:37:59;;;;;;;12.60;5.83;;;;;;;;;;4990455;28;20513;-74
2022/04/13 10:40:29;;;;;;;11.17;5.07;;;25.10;93.30;;;;;;4983030;28;20402;-74
2022/04/13 10:45:41;;;;;;;11.30;5.33;;;25.40;92.60;;;;;;5133902;22;20247;-74
2022/04/13 10:48:09;;;;;;;14.03;6.37;;;25.20;92.50;;;;;;5027405;28;20208;-73
2022/04/13 10:50:49;;;;;;;14.37;6.03;;;24.80;92.60;;;;;;5022826;28;20266;-73
2022/04/13 10:53:21;;;;;;;15.80;5.90;;;24.80;92.80;;;;;;5025096;28;20241;-73
2022/04/13 10:55:57;;;;;;;12.27;6.07;;;24.80;93.10;;;;;;5021034;28;20286;-73
2022/04/13 10:58:29;;;;;;;18.60;6.50;;;25.60;93.50;;;;;;5024008;28;20222;-73
2022/04/13 11:01:04;;;;;;;15.77;6.77;;;25.10;93.20;;;;;;5022813;28;20226;-75
2022/04/13 11:03:35;;;;;;;13.27;5.07;;;25.20;93.00;;;;;;5025787;28;20222;-73
2022/04/13 11:06:05;;;;;;;13.60;5.43;;;25.30;93.00;;;;;;5023634;28;20207;-73
2022/04/13 11:08:44;;;;;;;12.17;4.60;;;25.30;92.40;;;;;;5023992;28;20266;-73
2022/04/13 11:11:17;;;;;;;13.17;5.00;;;25.30;92.80;;;;;;5019458;28;20464;-73
2022/04/13 11:13:46;;;;;;;10.77;4.40;;;25.30;92.40;;;;;;5024526;28;20542;-73
2022/04/13 11:16:19;;;;;;;15.70;4.87;;;25.30;92.40;;;;;;5028201;28;20212;-73
2022/04/13 11:19:23;;;;;;;10.07;4.50;;;25.20;92.50;;;;;;5027508;28;20223;-73
2022/04/13 11:22:10;;;;;;;10.07;4.93;;;25.20;92.80;;;;;;5030402;28;20203;-73
2022/04/13 11:24:39;;;;;;;8.87;4.50;;;25.20;92.30;;;;;;5026647;28;20721;-73
2022/04/13 11:27:07;;;;;;;8.83;4.37;;;25.20;93.00;;;;;;5025388;28;20201;-73
2022/04/13 11:29:35;;;;;;;15.30;4.37;;;25.40;92.80;;;;;;5038200;28;20727;-73
2022/04/13 11:32:14;;;;;;;13.13;4.80;;;25.40;92.30;;;;;;5040759;28;20266;-73
2022/04/13 11:34:44;;;;;;;13.37;4.43;;;25.50;92.40;;;;;;5021551;28;20246;-73
2022/04/13 11:37:12;;;;;;;12.13;4.50;;;25.50;92.40;;;;;;5016988;28;20221;-74
2022/04/13 11:39:59;;;;;;;12.80;4.27;;;25.40;92.50;;;;;;5025424;28;20216;-74
2022/04/13 11:42:54;;;;;;;8.30;4.53;;;25.20;91.90;;;;;;5024989;28;20300;-73
2022/04/13 11:45:24;;;;;;;9.10;4.37;;;25.20;92.20;;;;;;5023450;28;20218;-73
2022/04/13 11:47:58;;;;;;;12.13;5.13;;;24.90;92.20;;;;;;5027828;28;20209;-73
2022/04/13 11:50:28;;;;;;;14.73;5.70;;;24.60;92.50;;;;;;5031952;28;20217;-74
2022/04/13 11:52:56;;;;;;;9.30;5.10;;;24.30;92.70;;;;;;5024257;28;20248;-74
2022/04/13 11:55:25;;;;;;;13.20;6.23;;;24.30;93.20;;;;;;5025894;28;20209;-75
2022/04/13 11:58:25;;;;;;;14.03;5.87;;;24.20;93.30;;;;;;5023091;28;20210;-73
2022/04/13 12:00:57;;;;;;;11.37;5.93;;;24.10;93.50;;;;;;5023554;28;20427;-74
2022/04/13 12:03:27;;;;;;;13.80;6.80;;;24.10;93.90;;;;;;5026436;28;20309;-74
2022/04/13 12:05:57;;;;;;;11.93;6.00;;;24.20;94.00;;;;;;5020928;28;20273;-75
2022/04/13 12:08:25;;;;;;;14.50;6.10;;;24.40;94.20;;;;;;5027389;28;20680;-74
2022/04/13 12:10:56;;;;;;;12.67;5.20;;;24.70;94.30;;;;;;5029953;28;20210;-74
2022/04/13 12:13:24;;;;;;;13.87;5.40;;;25.20;93.80;;;;;;5029332;28;20282;-74
2022/04/13 12:15:52;;;;;;;15.23;5.00;;;25.30;93.90;;;;;;5027697;28;20214;-74
2022/04/13 12:18:20;;;;;;;15.80;6.10;;;25.60;93.10;;;;;;5042284;28;20283;-74
2022/04/13 12:20:48;;;;;;;12.87;4.93;;;25.60;92.90;;;;;;5036495;28;20235;-77
2022/04/13 12:23:25;;;;;;;15.07;4.93;;;25.70;92.30;;;;;;5041259;28;20230;-76
2022/04/13 12:25:54;;;;;;;9.53;4.43;;;25.80;92.50;;;;;;5027292;28;20296;-74
2022/04/13 12:28:22;;;;;;;13.63;5.77;;;25.90;92.70;;;;;;5038041;28;20243;-74
2022/04/13 12:31:00;;;;;;;11.37;5.30;;;26.10;92.70;;;;;;5032147;28;20669;-74
2022/04/13 12:33:28;;;;;;;9.63;4.93;;;26.20;92.60;;;;;;5022485;28;20243;-74
2022/04/13 12:35:59;;;;;;;17.73;5.80;;;26.00;92.00;;;;;;5025740;28;20264;-74
2022/04/13 12:38:28;;;;;;;9.57;5.10;;;25.90;92.20;;;;;;5026804;28;20221;-74
2022/04/13 12:41:10;;;;;;;11.57;5.07;;;25.70;92.00;;;;;;5018732;28;20283;-75
2022/04/13 12:43:39;;;;;;;8.63;4.77;;;25.50;92.20;;;;;;5025296;28;20227;-74
2022/04/13 12:46:17;;;;;;;12.33;5.27;;;25.20;92.40;;;;;;5026238;28;20207;-74
2022/04/13 12:48:45;;;;;;;12.43;5.67;;;24.70;92.80;;;;;;5024347;28;20212;-73
2022/04/13 12:51:14;;;;;;;13.83;5.87;;;24.70;93.20;;;;;;5043358;28;20661;-73
2022/04/13 12:53:54;;;;;;;11.83;6.17;;;24.70;93.00;;;;;;5024942;28;20251;-72